Terminal Aerodrome Forecast
Issued by NWS Mt. Holly, NJ

Home | Current Version | Previous Version | Text Only | Print | Product List | Glossary On
Versions: 1 2 3 4 5 6 7 8 9 10 11 12 13 14 15 16 17 18 19 20 21 22
000
FTUS41 KPHI 170500
TAFABE
TAF
KABE 170535Z 1706/1806 02004KT P6SM SCT250
     FM171200 08007KT P6SM SCT250
     FM171800 10010KT P6SM FEW045
     FM180000 10007KT P6SM SCT200=

USA.gov is the U.S. government's official web portal to all federal, state and local government web resources and services.